createdAt,value
2018-09-25T00:01:04.287Z,10.20
2018-09-25T00:03:38.130Z,10.30
2018-09-25T00:06:12.577Z,10.30
2018-09-25T00:08:45.826Z,10.20
2018-09-25T00:11:18.949Z,10.10
2018-09-25T00:13:52.484Z,10.20
2018-09-25T00:16:25.711Z,10.30
2018-09-25T00:18:59.058Z,10.20
2018-09-25T00:21:32.259Z,10.10
2018-09-25T00:24:05.942Z,10.10
2018-09-25T00:26:39.406Z,10.10
2018-09-25T00:29:12.581Z,10.20
2018-09-25T00:31:45.902Z,10.20
2018-09-25T00:34:19.207Z,10.20
2018-09-25T00:36:53.187Z,10.10
2018-09-25T00:39:26.536Z,10.20
2018-09-25T00:41:59.723Z,10.20
2018-09-25T00:44:33.036Z,10.10
2018-09-25T00:47:06.454Z,10.10
2018-09-25T00:49:39.667Z,10.10
2018-09-25T00:52:12.913Z,10.00
2018-09-25T00:54:46.173Z,10.00
2018-09-25T00:57:19.326Z,9.90
2018-09-25T00:59:52.775Z,9.80
2018-09-25T01:02:25.881Z,9.70
2018-09-25T01:04:59.114Z,9.60
2018-09-25T01:07:32.218Z,9.60
2018-09-25T01:10:05.512Z,9.60
2018-09-25T01:12:38.762Z,9.70
2018-09-25T01:15:12.218Z,9.80
2018-09-25T01:17:45.444Z,9.80
2018-09-25T01:20:18.634Z,9.70
2018-09-25T01:22:52.039Z,9.80
2018-09-25T01:25:25.473Z,9.60
2018-09-25T01:27:58.756Z,9.60
2018-09-25T01:30:32.112Z,9.50
2018-09-25T01:33:05.778Z,9.40
2018-09-25T01:35:38.935Z,9.40
2018-09-25T01:38:12.417Z,9.30
2018-09-25T01:40:45.850Z,9.30
2018-09-25T01:43:19.296Z,9.40
2018-09-25T01:45:52.466Z,9.30
2018-09-25T01:48:25.875Z,9.40
2018-09-25T01:50:59.243Z,9.50
2018-09-25T01:53:32.638Z,9.40
2018-09-25T01:56:05.902Z,9.30
2018-09-25T01:58:39.097Z,9.30
2018-09-25T02:01:12.530Z,9.10
2018-09-25T02:03:45.707Z,9.20
2018-09-25T02:06:18.998Z,9.20
2018-09-25T02:08:52.356Z,9.20
2018-09-25T02:11:25.560Z,9.10
2018-09-25T02:14:04.626Z,9.10
2018-09-25T02:16:38.260Z,9.30
2018-09-25T02:19:11.498Z,9.20
2018-09-25T02:21:44.950Z,9.30
2018-09-25T02:24:18.383Z,9.30
2018-09-25T02:26:51.603Z,9.10
2018-09-25T02:29:25.007Z,9.00
2018-09-25T02:31:58.205Z,9.00
2018-09-25T02:34:31.322Z,9.00
2018-09-25T02:37:04.498Z,9.00
2018-09-25T02:39:37.998Z,9.00
2018-09-25T02:42:11.654Z,9.10
2018-09-25T02:44:45.145Z,9.00
2018-09-25T02:47:18.550Z,9.00
2018-09-25T02:49:51.743Z,8.90
2018-09-25T02:52:25.144Z,8.90
2018-09-25T02:54:58.494Z,8.80
2018-09-25T02:57:31.928Z,8.70
2018-09-25T03:00:05.063Z,8.60
2018-09-25T03:02:38.341Z,8.60
2018-09-25T03:05:11.918Z,8.60
2018-09-25T03:07:45.291Z,8.70
2018-09-25T03:10:18.580Z,8.70
2018-09-25T03:12:51.899Z,8.70
2018-09-25T03:15:25.113Z,8.70
2018-09-25T03:17:58.480Z,8.60
2018-09-25T03:20:31.728Z,8.40
2018-09-25T03:23:05.110Z,8.50
2018-09-25T03:25:38.377Z,8.40
2018-09-25T03:28:11.583Z,8.60
2018-09-25T03:30:44.961Z,8.50
2018-09-25T03:33:18.535Z,8.60
2018-09-25T03:35:51.874Z,8.60
2018-09-25T03:38:25.077Z,8.50
2018-09-25T03:40:58.481Z,8.50
2018-09-25T03:43:31.707Z,8.50
2018-09-25T03:46:04.950Z,8.40
2018-09-25T03:48:38.237Z,8.20
2018-09-25T03:51:12.058Z,8.10
2018-09-25T03:53:45.662Z,8.20
2018-09-25T03:56:18.756Z,8.00
2018-09-25T03:58:51.935Z,8.20
2018-09-25T04:01:25.100Z,8.20
2018-09-25T04:03:58.292Z,8.20
2018-09-25T04:06:31.428Z,8.20
2018-09-25T04:09:04.615Z,8.20
2018-09-25T04:11:37.681Z,8.20
2018-09-25T04:14:11.138Z,8.20
2018-09-25T04:16:44.278Z,8.20
2018-09-25T04:19:17.460Z,8.20
2018-09-25T04:21:50.687Z,8.20
2018-09-25T04:24:23.850Z,8.10
2018-09-25T04:26:57.075Z,8.10
2018-09-25T04:29:30.191Z,8.20
2018-09-25T04:32:03.367Z,8.10
2018-09-25T04:34:36.572Z,8.00
2018-09-25T04:37:09.827Z,8.00
2018-09-25T04:39:42.927Z,7.90
2018-09-25T04:42:16.152Z,7.90
2018-09-25T04:44:49.459Z,7.90
2018-09-25T04:47:22.979Z,7.90
2018-09-25T04:49:56.391Z,8.00
2018-09-25T04:52:29.677Z,8.00
2018-09-25T04:55:02.886Z,8.00
2018-09-25T04:57:36.122Z,8.00
2018-09-25T05:00:10.016Z,8.00
2018-09-25T05:02:43.210Z,7.90
2018-09-25T05:05:16.648Z,7.90
2018-09-25T05:07:49.799Z,7.90
2018-09-25T05:10:23.038Z,7.90
2018-09-25T05:12:56.426Z,7.90
2018-09-25T05:15:30.063Z,7.90
2018-09-25T05:18:03.526Z,7.70
2018-09-25T05:20:36.997Z,7.80
2018-09-25T05:23:10.800Z,7.70
2018-09-25T05:25:44.909Z,7.80
2018-09-25T05:28:18.418Z,7.70
2018-09-25T05:30:52.496Z,7.70
2018-09-25T05:33:26.383Z,7.70
2018-09-25T05:35:59.909Z,7.70
2018-09-25T05:38:33.508Z,7.70
2018-09-25T05:41:06.827Z,7.80
2018-09-25T05:43:40.294Z,7.80
2018-09-25T05:46:13.701Z,7.80
2018-09-25T05:48:47.310Z,7.80
2018-09-25T05:51:20.892Z,7.70
2018-09-25T05:53:54.162Z,7.70
2018-09-25T05:56:28.511Z,7.70
2018-09-25T05:59:01.649Z,7.80
2018-09-25T06:01:35.156Z,7.80
2018-09-25T06:04:08.610Z,7.80
2018-09-25T06:06:44.248Z,7.70
2018-09-25T06:09:17.652Z,7.80
2018-09-25T06:11:50.896Z,7.90
2018-09-25T06:14:24.048Z,7.80
2018-09-25T06:16:57.293Z,7.90
2018-09-25T06:19:30.915Z,7.90
2018-09-25T06:22:04.407Z,7.90
2018-09-25T06:24:37.544Z,7.80
2018-09-25T06:27:10.746Z,7.90
2018-09-25T06:29:44.216Z,8.00
2018-09-25T06:32:17.380Z,8.10
2018-09-25T06:34:50.903Z,8.20
2018-09-25T06:37:26.187Z,8.30
2018-09-25T06:40:01.365Z,8.30
2018-09-25T06:42:34.756Z,8.30
2018-09-25T06:45:08.210Z,8.70
2018-09-25T06:53:46.807Z,8.50
2018-09-25T06:56:20.089Z,8.50
2018-09-25T06:58:53.286Z,8.50
2018-09-25T07:01:26.799Z,8.60
2018-09-25T07:04:00.121Z,8.70
2018-09-25T07:06:33.612Z,8.80
2018-09-25T07:09:06.979Z,8.80
2018-09-25T07:11:40.087Z,8.80
2018-09-25T07:14:14.468Z,8.90
2018-09-25T07:16:47.914Z,8.90
2018-09-25T07:19:21.167Z,9.00
2018-09-25T07:21:54.405Z,9.00
2018-09-25T07:24:28.300Z,9.00
2018-09-25T07:27:05.043Z,9.00
2018-09-25T07:29:38.999Z,9.10
2018-09-25T07:32:12.264Z,9.10
2018-09-25T07:34:45.459Z,9.20
2018-09-25T07:37:18.618Z,9.20
2018-09-25T07:39:51.874Z,9.00
2018-09-25T07:42:25.450Z,9.30
2018-09-25T07:44:58.820Z,9.20
2018-09-25T07:47:32.737Z,9.30
2018-09-25T07:50:06.257Z,9.40
2018-09-25T07:52:39.558Z,9.40
2018-09-25T07:55:12.982Z,9.50
2018-09-25T07:57:46.256Z,9.50
2018-09-25T08:00:19.677Z,9.50
2018-09-25T08:02:52.879Z,9.60
2018-09-25T08:05:27.412Z,9.70
2018-09-25T08:08:04.347Z,9.70
2018-09-25T08:10:37.703Z,9.80
2018-09-25T08:13:11.450Z,9.70
2018-09-25T08:15:45.177Z,10.00
2018-09-25T08:18:20.802Z,10.00
2018-09-25T08:20:56.819Z,10.00
2018-09-25T08:23:38.289Z,10.10
2018-09-25T08:26:21.553Z,10.10
2018-09-25T08:28:58.252Z,10.20
2018-09-25T08:31:32.312Z,10.30
2018-09-25T08:34:06.319Z,10.30
2018-09-25T08:36:42.580Z,10.30
2018-09-25T08:39:25.513Z,10.40
2018-09-25T08:42:02.774Z,10.50
2018-09-25T08:44:36.949Z,10.50
2018-09-25T11:22:43.706Z,14.60
2018-09-25T11:25:33.726Z,14.40
2018-09-25T11:40:30.971Z,14.10
2018-09-25T14:00:12.417Z,16.10
2018-09-25T14:15:05.385Z,15.90
2018-09-25T14:17:41.263Z,15.90
2018-09-25T14:24:32.143Z,16.00
2018-09-25T14:27:11.257Z,16.20
2018-09-25T14:29:45.006Z,16.30
2018-09-25T14:32:28.956Z,16.40
2018-09-25T14:41:02.421Z,16.30
2018-09-25T14:43:51.954Z,16.30
2018-09-25T14:46:26.290Z,16.50
2018-09-25T14:49:01.568Z,16.30
2018-09-25T14:51:39.462Z,16.20
2018-09-25T14:54:15.496Z,16.30
2018-09-25T14:56:50.825Z,16.30
2018-09-25T14:59:27.559Z,16.50
2018-09-25T15:02:01.637Z,16.50
2018-09-25T15:04:43.224Z,16.60
2018-09-25T15:07:28.049Z,16.60
2018-09-25T15:10:07.349Z,16.70
2018-09-25T15:12:46.567Z,16.70
2018-09-25T15:18:18.014Z,16.80
2018-09-25T15:21:02.300Z,16.80
2018-09-25T15:23:37.183Z,16.60
2018-09-25T15:26:16.512Z,16.50
2018-09-25T15:28:54.327Z,16.10
2018-09-25T15:31:30.639Z,16.00
2018-09-25T15:34:05.836Z,15.90
2018-09-25T15:36:48.208Z,15.70
2018-09-25T15:39:26.524Z,15.70
2018-09-25T15:42:00.400Z,15.60
2018-09-25T15:44:39.487Z,15.60
2018-09-25T15:47:14.082Z,15.50
2018-09-25T15:49:49.863Z,15.50
2018-09-25T15:52:32.962Z,15.60
2018-09-25T15:55:09.788Z,15.70
2018-09-25T15:57:53.238Z,15.70
2018-09-25T16:00:26.593Z,15.90
2018-09-25T16:03:05.011Z,15.80
2018-09-25T16:05:39.042Z,15.80
2018-09-25T16:08:13.714Z,15.80
2018-09-25T16:11:03.550Z,15.80
2018-09-25T16:13:42.323Z,15.80
2018-09-25T16:29:02.912Z,15.80
2018-09-25T16:31:50.091Z,15.10
2018-09-25T16:34:34.026Z,15.30
2018-09-25T16:43:07.769Z,15.00
2018-09-25T16:45:47.694Z,14.90
2018-09-25T16:48:22.592Z,14.80
2018-09-25T16:57:05.754Z,14.60
2018-09-25T17:02:44.165Z,14.40
2018-09-25T17:50:41.101Z,12.80
2018-09-25T17:53:15.315Z,12.80
2018-09-25T17:55:50.790Z,12.70
2018-09-25T17:58:25.253Z,12.70
2018-09-25T18:01:00.761Z,12.60
2018-09-25T18:03:34.428Z,12.60
2018-09-25T18:06:08.791Z,12.50
2018-09-25T18:08:43.608Z,12.50
2018-09-25T18:11:26.380Z,12.40
2018-09-25T18:14:02.369Z,12.40
2018-09-25T18:16:35.869Z,12.30
2018-09-25T18:19:11.888Z,12.30
2018-09-25T18:21:57.528Z,12.20
2018-09-25T18:24:31.826Z,12.10
2018-09-25T18:27:07.652Z,12.00
2018-09-25T18:29:47.966Z,12.00
2018-09-25T18:32:23.440Z,12.00
2018-09-25T18:34:57.638Z,11.90
2018-09-25T18:37:32.420Z,11.90
2018-09-25T18:40:10.423Z,11.90
2018-09-25T18:42:44.352Z,11.80
2018-09-25T18:48:01.533Z,11.80
2018-09-25T18:50:36.612Z,11.70
2018-09-25T18:53:16.805Z,11.80
2018-09-25T18:55:52.502Z,11.70
2018-09-25T18:58:30.708Z,11.60
2018-09-25T19:01:05.953Z,11.60
2018-09-25T19:03:41.022Z,11.60
2018-09-25T19:06:17.095Z,11.60
2018-09-25T19:08:52.110Z,11.60
2018-09-25T19:11:31.519Z,11.50
2018-09-25T19:14:06.236Z,11.50
2018-09-25T19:16:46.797Z,11.50
2018-09-25T19:19:22.224Z,11.40
2018-09-25T19:21:57.290Z,11.40
2018-09-25T19:24:32.620Z,11.40
2018-09-25T19:27:06.547Z,11.30
2018-09-25T19:29:50.045Z,11.30
2018-09-25T19:32:24.419Z,11.30
2018-09-25T19:34:59.827Z,11.20
2018-09-25T19:37:34.550Z,11.20
2018-09-25T19:40:10.364Z,11.20
2018-09-25T19:42:46.483Z,11.10
2018-09-25T19:45:24.448Z,11.10
2018-09-25T19:47:59.308Z,11.10
2018-09-25T19:50:37.866Z,11.10
2018-09-25T19:53:12.845Z,11.10
2018-09-25T19:55:49.177Z,10.90
2018-09-25T19:58:28.723Z,11.10
2018-09-25T20:01:03.242Z,11.10
2018-09-25T20:03:37.522Z,11.00
2018-09-25T20:06:22.897Z,11.00
2018-09-25T20:09:08.411Z,11.00
2018-09-25T20:11:51.139Z,11.00
2018-09-25T20:14:28.158Z,11.00
2018-09-25T20:17:02.104Z,10.90
2018-09-25T20:19:36.842Z,10.90
2018-09-25T20:22:12.999Z,10.90
2018-09-25T20:24:47.485Z,10.40
2018-09-25T20:27:21.125Z,10.90
2018-09-25T20:29:55.799Z,10.80
2018-09-25T20:32:43.035Z,10.80
2018-09-25T20:35:17.455Z,10.70
2018-09-25T20:37:51.939Z,10.80
2018-09-25T20:40:27.743Z,10.70
2018-09-25T20:43:02.869Z,10.10
2018-09-25T20:45:36.928Z,10.60
2018-09-25T20:48:11.425Z,10.70
2018-09-25T20:50:45.522Z,10.50
2018-09-25T20:53:19.193Z,10.50
2018-09-25T20:55:52.879Z,10.50
2018-09-25T20:58:26.312Z,10.50
2018-09-25T21:00:59.698Z,10.40
2018-09-25T21:03:33.174Z,10.40
2018-09-25T21:06:06.559Z,10.30
2018-09-25T21:08:40.015Z,10.30
2018-09-25T21:11:13.167Z,10.30
2018-09-25T21:13:46.932Z,10.30
2018-09-25T21:16:20.462Z,10.30
2018-09-25T21:18:53.910Z,10.20
2018-09-25T21:21:27.425Z,10.20
2018-09-25T21:24:00.939Z,10.10
2018-09-25T21:26:34.835Z,10.20
2018-09-25T21:29:08.247Z,10.10
2018-09-25T21:31:45.679Z,10.10
2018-09-25T21:34:19.004Z,10.00
2018-09-25T21:36:52.335Z,9.90
2018-09-25T21:39:34.027Z,9.90
2018-09-25T21:42:07.584Z,9.90
2018-09-25T21:44:40.803Z,9.90
2018-09-25T21:47:14.119Z,9.90
2018-09-25T21:49:47.616Z,9.90
2018-09-25T21:52:20.919Z,9.80
2018-09-25T21:54:54.328Z,9.90
2018-09-25T21:57:27.974Z,9.80
2018-09-25T22:00:01.225Z,9.70
2018-09-25T22:02:34.658Z,9.60
2018-09-25T22:05:08.188Z,9.60
2018-09-25T22:07:41.336Z,9.60
2018-09-25T22:10:15.567Z,9.40
2018-09-25T22:12:49.147Z,9.40
2018-09-25T22:15:22.431Z,9.40
2018-09-25T22:17:55.562Z,9.40
2018-09-25T22:20:28.883Z,9.40
2018-09-25T22:23:02.044Z,9.40
2018-09-25T22:25:35.261Z,9.50
2018-09-25T22:28:08.497Z,9.50
2018-09-25T22:30:41.860Z,9.50
2018-09-25T22:33:15.133Z,9.50
2018-09-25T22:35:48.831Z,9.40
2018-09-25T22:38:22.222Z,9.40
2018-09-25T22:40:55.500Z,9.30
2018-09-25T22:43:28.926Z,9.20
2018-09-25T22:46:02.209Z,9.00
2018-09-25T22:48:35.533Z,9.10
2018-09-25T22:51:12.360Z,9.00
2018-09-25T22:53:45.529Z,9.00
2018-09-25T22:56:18.689Z,8.90
2018-09-25T22:58:51.815Z,8.90
2018-09-25T23:01:25.027Z,8.90
2018-09-25T23:03:58.388Z,8.90
2018-09-25T23:06:31.625Z,8.90
2018-09-25T23:09:05.436Z,8.90
2018-09-25T23:11:38.882Z,8.90
2018-09-25T23:14:12.216Z,8.90
2018-09-25T23:16:45.713Z,8.90
2018-09-25T23:19:19.077Z,8.80
2018-09-25T23:21:52.704Z,8.80
2018-09-25T23:24:26.222Z,8.70
2018-09-25T23:26:59.620Z,8.70
2018-09-25T23:29:32.897Z,8.70
